首页
METAR-TAF:

METAR-TAF

机场 :

卡尔斯鲁厄/巴登-巴登机场

巴登-巴登, 德国

纬度: 48-46-43N, 经度: 008-04-47E, 海拔: 124米

当前天气观测

该预报发布于27分钟前的20:20 UTC
风速11节,风向
温度 4°C
湿度 100%
气压 1004 hPa
能見度: 5000
少量云层高于300英尺
阴天层高于400英尺
小雨, 轻雾

METAR: EDSB 172020Z 19011KT 5000 -RA BR FEW003 OVC004 04/04 Q1004

时间: 21:47 (20:47 UTC)

预报

该预报发布于3小时和47分钟前的17:00 UTC
预报有效从17日的 18点(UTC)到 18日的 18点(UTC)
风速5节,风向南转西南
能見度: 5000
散云层高于400英尺
阴天层高于1000英尺
轻雾
短暂存在
从 17日的 18点(UTC)到 17日的 22点(UTC)
能見度: 2000
多云层高于400英尺
毛毛雨, 雨
成为
从 17日的 22点(UTC)到 17日的 24点(UTC)
多云层高于1500英尺
短暂存在
从 18日的 06点(UTC)到 18日的 16点(UTC)
能見度: 3000
多云层高于1000英尺
小毛毛雨, 雨
成为
从 18日的 08点(UTC)到 18日的 10点(UTC)
风速12节,风向南转西南

TAF: EDSB 171700Z 1718/1818 21005KT 5000 BR SCT004 OVC010 TEMPO 1718/1722 2000 DZRA BKN004 BECMG 1722/1724 BKN015 TEMPO 1806/1816 3000 -DZRA BKN010 BECMG 1808/1810 21012KT

超过4000个机场的气象观测和天气预报(METAR&TAF报告)。

可查询的气象台以黄色和红色小点在地图上表示。

将鼠标移到小点上方,可查看气象台名称。

然后点击查看天气观测和预报。

如需切换地图:点击带黑十字的绿色按钮放大地图;点击带横线的绿色按钮缩小地图;或者点击绿色箭头查看邻近地区的地图。


METAR-TAF: